Time;durP1;ratioP1;P1;durP2;ratioP2;P2;SDS_P1;SDS_P2;PMS_P1;PMS_P2;Temp;Humidity;BMP_temperature;BMP_pressure;BME280_temperature;BME280_humidity;BME280_pressure;Samples;Min_cycle;Max_cycle;Signal;HPM_P1;HPM_P2
2023/06/08 00:02:24;;;;;;;13.52;8.98;;;18.40;99.90;;;;;;4954287;28;20035;-78
2023/06/08 00:04:52;;;;;;;22.63;10.05;;;18.40;99.90;;;;;;4953913;28;20045;-77
2023/06/08 00:07:18;;;;;;;13.52;9.10;;;18.30;99.90;;;;;;4953900;28;20093;-78
2023/06/08 00:09:45;;;;;;;12.75;8.85;;;18.30;99.90;;;;;;4953786;28;20501;-78
2023/06/08 00:12:11;;;;;;;13.90;9.50;;;18.30;99.90;;;;;;4962286;28;20492;-78
2023/06/08 00:14:38;;;;;;;13.68;8.52;;;18.30;99.90;;;;;;4953626;28;20062;-79
2023/06/08 00:17:04;;;;;;;13.25;8.45;;;18.20;99.90;;;;;;4953474;28;20129;-77
2023/06/08 00:19:32;;;;;;;13.55;9.15;;;18.20;99.90;;;;;;4953296;28;20027;-78
2023/06/08 00:22:08;;;;;;;13.75;9.48;;;18.20;99.90;;;;;;4953564;28;20079;-78
2023/06/08 00:24:35;;;;;;;15.70;9.45;;;18.00;99.90;;;;;;4953289;28;20027;-78
2023/06/08 00:27:01;;;;;;;15.05;8.52;;;18.00;99.90;;;;;;4954002;28;20023;-78
2023/06/08 00:29:28;;;;;;;14.63;8.93;;;18.00;99.90;;;;;;4953694;28;20475;-78
2023/06/08 00:31:54;;;;;;;16.27;9.57;;;17.90;99.90;;;;;;4953898;28;20045;-75
2023/06/08 00:34:20;;;;;;;16.52;9.35;;;17.80;99.90;;;;;;4953463;28;20450;-74
2023/06/08 00:36:46;;;;;;;13.95;8.70;;;17.70;99.90;;;;;;4953884;28;20027;-75
2023/06/08 00:39:13;;;;;;;17.63;9.13;;;17.80;99.90;;;;;;4958201;28;20026;-76
2023/06/08 00:41:39;;;;;;;14.88;9.35;;;17.80;99.90;;;;;;4944435;29;20042;-77
2023/06/08 00:44:06;;;;;;;15.25;9.07;;;17.80;99.90;;;;;;4953486;28;20055;-77
2023/06/08 00:46:33;;;;;;;14.68;8.95;;;17.80;99.90;;;;;;4953818;28;20078;-77
2023/06/08 00:49:00;;;;;;;12.45;8.57;;;17.90;99.90;;;;;;4953716;28;20027;-76
2023/06/08 00:51:31;;;;;;;19.38;8.63;;;17.80;99.90;;;;;;4953628;28;20039;-76
2023/06/08 00:53:57;;;;;;;16.20;9.38;;;17.70;99.90;;;;;;4954234;28;20026;-76
2023/06/08 00:56:31;;;;;;;12.93;8.60;;;17.60;99.90;;;;;;4953671;28;20493;-74
2023/06/08 00:59:02;;;;;;;13.48;8.57;;;17.70;99.90;;;;;;4921705;29;20488;-78
2023/06/08 01:01:35;;;;;;;15.45;8.00;;;17.70;99.90;;;;;;4948832;28;20053;-77
2023/06/08 01:04:09;;;;;;;12.30;8.07;;;17.80;99.90;;;;;;4953405;28;20502;-76
2023/06/08 01:06:39;;;;;;;15.27;8.65;;;17.70;99.90;;;;;;4936190;28;20395;-78
2023/06/08 01:09:31;;;;;;;12.13;8.57;;;17.70;99.90;;;;;;4954068;28;20058;-74
2023/06/08 01:12:06;;;;;;;13.70;7.70;;;17.90;99.90;;;;;;4941299;28;20032;-76
2023/06/08 01:14:53;;;;;;;15.07;8.38;;;17.70;99.90;;;;;;4935751;28;20039;-76
2023/06/08 01:17:24;;;;;;;15.68;8.98;;;17.70;99.90;;;;;;4926396;29;20044;-74
2023/06/08 01:19:54;;;;;;;13.98;8.88;;;17.60;99.90;;;;;;4955103;28;20046;-75
2023/06/08 01:22:44;;;;;;;12.20;8.63;;;17.50;99.90;;;;;;4956897;28;20483;-77
2023/06/08 01:25:11;;;;;;;14.45;8.07;;;17.50;99.90;;;;;;4939527;29;20553;-79
2023/06/08 01:27:38;;;;;;;12.90;8.57;;;17.60;99.90;;;;;;4954970;28;20030;-74
2023/06/08 01:30:06;;;;;;;15.63;8.88;;;17.70;99.90;;;;;;4939900;29;20043;-75
2023/06/08 01:32:32;;;;;;;15.23;9.13;;;17.70;99.90;;;;;;4939212;29;20047;-75
2023/06/08 01:34:58;;;;;;;16.42;9.23;;;17.50;99.90;;;;;;4955136;28;20035;-76
2023/06/08 01:37:33;;;;;;;17.70;8.77;;;17.60;99.90;;;;;;4939394;29;20060;-76
2023/06/08 01:40:14;;;;;;;14.80;8.63;;;17.70;99.90;;;;;;4939422;28;20041;-76
2023/06/08 01:42:43;;;;;;;14.38;9.00;;;17.70;99.90;;;;;;4956977;28;20427;-74
2023/06/08 01:45:11;;;;;;;13.68;8.52;;;17.60;99.90;;;;;;4937424;29;20527;-75
2023/06/08 01:47:45;;;;;;;12.75;8.15;;;17.50;99.90;;;;;;4956696;28;20462;-77
2023/06/08 01:50:12;;;;;;;11.63;7.88;;;17.50;99.90;;;;;;4956043;28;20038;-77
2023/06/08 01:52:41;;;;;;;12.00;8.48;;;17.40;99.90;;;;;;4939313;28;20047;-75
2023/06/08 01:55:22;;;;;;;13.68;8.60;;;17.40;99.90;;;;;;4956260;28;20022;-76
2023/06/08 01:57:48;;;;;;;15.38;9.55;;;17.40;99.90;;;;;;4954454;28;20436;-76
2023/06/08 02:00:16;;;;;;;13.80;8.38;;;17.60;99.90;;;;;;4938978;29;20023;-77
2023/06/08 02:02:44;;;;;;;14.50;9.10;;;17.30;99.90;;;;;;4956159;28;20039;-76
2023/06/08 02:05:11;;;;;;;11.15;8.20;;;17.40;99.90;;;;;;4956234;28;20019;-76
2023/06/08 02:07:38;;;;;;;14.10;8.52;;;17.50;99.90;;;;;;4927561;29;20049;-75
2023/06/08 02:10:05;;;;;;;16.45;9.18;;;17.30;99.90;;;;;;4937677;29;20031;-77
2023/06/08 02:12:31;;;;;;;16.80;8.88;;;17.20;99.90;;;;;;4955761;28;20047;-76
2023/06/08 02:14:57;;;;;;;15.05;8.63;;;17.30;99.90;;;;;;4938259;29;20054;-76
2023/06/08 02:17:27;;;;;;;17.52;9.05;;;17.30;99.90;;;;;;4954587;28;20059;-79
2023/06/08 02:19:54;;;;;;;12.90;8.73;;;17.20;99.90;;;;;;4954859;28;20024;-74
2023/06/08 02:22:20;;;;;;;13.80;8.88;;;17.20;99.90;;;;;;4956095;28;20031;-74
2023/06/08 02:24:48;;;;;;;16.30;9.02;;;17.20;99.90;;;;;;4954944;28;20027;-76
2023/06/08 02:27:16;;;;;;;17.20;8.95;;;17.20;99.90;;;;;;4952726;28;20058;-77
2023/06/08 02:29:42;;;;;;;12.45;8.15;;;17.20;99.90;;;;;;4938413;29;20030;-77
2023/06/08 02:32:08;;;;;;;13.30;9.00;;;17.30;99.90;;;;;;4968302;28;20042;-76
2023/06/08 02:34:37;;;;;;;15.90;9.23;;;17.20;99.90;;;;;;4955532;28;20019;-77
2023/06/08 02:37:04;;;;;;;17.20;8.23;;;17.20;99.90;;;;;;4938303;29;20395;-75
2023/06/08 02:39:31;;;;;;;12.90;8.43;;;17.20;99.90;;;;;;4937736;28;20027;-75
2023/06/08 02:41:57;;;;;;;14.50;9.00;;;17.00;99.90;;;;;;4955167;28;20035;-76
2023/06/08 02:44:23;;;;;;;18.70;9.02;;;17.00;99.90;;;;;;4937937;28;20475;-77
2023/06/08 02:46:48;;;;;;;17.00;9.45;;;16.90;99.90;;;;;;4937850;29;20039;-74
2023/06/08 02:49:15;;;;;;;20.70;9.90;;;16.80;99.90;;;;;;4937998;29;20447;-74
2023/06/08 02:51:42;;;;;;;14.40;9.88;;;16.80;99.90;;;;;;4953417;28;20090;-75
2023/06/08 02:54:07;;;;;;;15.38;9.75;;;17.00;99.90;;;;;;4954988;28;20023;-73
2023/06/08 02:56:33;;;;;;;16.42;9.82;;;17.20;99.90;;;;;;4938114;29;20074;-77
2023/06/08 02:59:02;;;;;;;13.55;9.63;;;16.90;99.90;;;;;;4937818;28;20034;-76
2023/06/08 03:01:30;;;;;;;13.18;8.65;;;16.90;99.90;;;;;;4936477;29;20031;-75
2023/06/08 03:04:03;;;;;;;14.15;9.10;;;16.90;99.90;;;;;;4936034;28;20034;-75
2023/06/08 03:06:36;;;;;;;;;;;16.90;99.90;;;;;;4938157;29;20063;-75
2023/06/08 03:09:04;;;;;;;17.48;9.77;;;16.90;99.90;;;;;;4937535;29;21468;-77
2023/06/08 03:11:34;;;;;;;17.02;9.73;;;17.40;99.90;;;;;;4937526;29;20035;-76
2023/06/08 03:14:03;;;;;;;22.02;9.70;;;17.00;99.90;;;;;;4935814;28;20122;-76
2023/06/08 03:16:31;;;;;;;15.07;8.25;;;17.10;99.90;;;;;;4937518;29;20070;-77
2023/06/08 03:18:57;;;;;;;16.85;8.98;;;17.20;99.90;;;;;;4937779;28;20529;-77
2023/06/08 03:21:28;;;;;;;15.52;8.48;;;17.20;99.90;;;;;;4937581;29;20179;-76
2023/06/08 03:23:55;;;;;;;17.15;9.63;;;17.20;99.90;;;;;;4936103;29;20050;-78
2023/06/08 03:26:22;;;;;;;14.65;8.10;;;17.30;99.90;;;;;;4937400;29;20051;-77
2023/06/08 03:28:48;;;;;;;16.73;8.23;;;17.20;99.90;;;;;;4937301;29;20391;-77
2023/06/08 03:31:15;;;;;;;13.43;8.45;;;17.40;99.90;;;;;;4936946;28;20090;-74
2023/06/08 03:33:46;;;;;;;18.40;8.52;;;17.60;99.90;;;;;;4953706;28;20109;-76
2023/06/08 03:36:11;;;;;;;15.77;8.00;;;17.60;99.90;;;;;;4935633;29;20079;-79
2023/06/08 03:38:40;;;;;;;15.30;7.32;;;17.70;99.90;;;;;;4936634;28;20079;-76
2023/06/08 03:41:09;;;;;;;17.00;7.75;;;17.70;99.90;;;;;;4937098;29;20038;-75
2023/06/08 03:43:35;;;;;;;15.13;8.15;;;17.80;99.90;;;;;;4936551;29;20078;-74
2023/06/08 03:46:01;;;;;;;16.80;9.10;;;17.80;99.90;;;;;;4935318;28;20035;-76
2023/06/08 03:48:28;;;;;;;12.60;7.20;;;17.70;99.90;;;;;;4936873;29;20086;-77
2023/06/08 03:50:56;;;;;;;11.35;6.95;;;17.90;99.90;;;;;;4949585;28;20402;-75
2023/06/08 03:53:23;;;;;;;12.70;7.93;;;17.60;99.90;;;;;;4945962;28;20035;-73
2023/06/08 03:55:49;;;;;;;12.63;7.60;;;17.70;99.90;;;;;;4960676;28;20485;-75
2023/06/08 03:58:15;;;;;;;19.15;7.80;;;17.80;99.90;;;;;;4947624;28;20031;-74
2023/06/08 04:00:42;;;;;;;13.00;7.75;;;17.90;99.90;;;;;;4949375;28;20379;-75
2023/06/08 04:03:09;;;;;;;15.40;7.57;;;18.00;99.90;;;;;;4942261;28;20590;-76
2023/06/08 04:05:36;;;;;;;11.45;7.40;;;18.10;99.90;;;;;;4947507;28;20050;-77
2023/06/08 04:08:03;;;;;;;13.90;7.50;;;18.10;99.90;;;;;;4927002;29;20526;-77
2023/06/08 04:10:30;;;;;;;11.23;7.22;;;18.20;99.90;;;;;;4933007;29;20028;-77
2023/06/08 04:12:56;;;;;;;13.93;6.88;;;18.50;99.90;;;;;;4953897;28;20024;-77
2023/06/08 04:15:22;;;;;;;14.32;6.95;;;18.70;99.90;;;;;;4936522;28;20102;-78
2023/06/08 04:17:49;;;;;;;12.25;7.40;;;18.70;99.90;;;;;;4935170;29;20066;-77
2023/06/08 04:20:19;;;;;;;11.68;6.90;;;18.80;99.90;;;;;;4936817;29;20024;-77
2023/06/08 04:22:46;;;;;;;14.40;6.90;;;19.00;99.90;;;;;;4953828;28;20150;-77
2023/06/08 04:25:13;;;;;;;10.75;7.13;;;19.20;99.90;;;;;;4936791;29;20023;-78
2023/06/08 04:27:40;;;;;;;8.77;6.18;;;19.20;99.90;;;;;;4936456;29;20023;-77
2023/06/08 04:30:06;;;;;;;12.50;7.38;;;19.20;99.90;;;;;;4952087;28;20059;-78
2023/06/08 04:32:33;;;;;;;10.48;6.50;;;19.40;99.90;;;;;;4935663;28;20401;-77
2023/06/08 04:35:03;;;;;;;10.65;6.30;;;19.60;99.90;;;;;;4936279;29;20023;-77
2023/06/08 04:37:29;;;;;;;14.65;7.32;;;19.50;99.90;;;;;;4953947;28;20476;-78
2023/06/08 04:39:56;;;;;;;12.75;6.50;;;19.90;99.90;;;;;;4925669;29;20040;-77
2023/06/08 04:42:27;;;;;;;12.75;6.65;;;20.00;99.90;;;;;;4934926;29;20031;-76
2023/06/08 04:44:53;;;;;;;9.05;6.25;;;20.10;99.90;;;;;;4940087;28;20043;-76
2023/06/08 04:47:19;;;;;;;10.70;6.28;;;20.20;99.90;;;;;;4957480;28;20102;-76
2023/06/08 04:49:45;;;;;;;9.93;6.40;;;20.40;99.90;;;;;;4938416;29;20134;-78
2023/06/08 04:52:15;;;;;;;9.73;7.20;;;20.90;99.90;;;;;;4940205;29;20484;-76
2023/06/08 04:54:41;;;;;;;14.10;7.03;;;20.50;99.90;;;;;;4957356;28;20448;-77
2023/06/08 04:57:09;;;;;;;9.98;6.90;;;20.80;99.90;;;;;;4939849;29;20047;-77
2023/06/08 04:59:36;;;;;;;14.00;6.88;;;20.40;99.90;;;;;;4940292;28;20031;-76
2023/06/08 05:02:03;;;;;;;16.00;6.88;;;20.60;99.90;;;;;;4937963;29;20487;-77
2023/06/08 05:04:29;;;;;;;11.32;6.65;;;20.80;99.90;;;;;;4940250;29;20028;-78
2023/06/08 05:06:55;;;;;;;12.10;6.47;;;21.00;99.90;;;;;;4956997;28;20034;-76
2023/06/08 05:09:21;;;;;;;10.80;6.30;;;21.10;99.90;;;;;;4957531;28;20033;-76
2023/06/08 05:11:47;;;;;;;15.88;7.57;;;20.90;99.90;;;;;;4950183;28;20379;-75
2023/06/08 05:14:13;;;;;;;19.08;7.95;;;21.10;99.90;;;;;;4937937;28;20467;-76
2023/06/08 05:16:39;;;;;;;12.75;7.53;;;21.10;99.90;;;;;;4951296;28;20123;-76
2023/06/08 05:19:08;;;;;;;11.95;6.97;;;20.60;99.90;;;;;;4950108;28;20130;-75
2023/06/08 05:21:37;;;;;;;13.15;7.28;;;21.20;99.90;;;;;;4955252;28;20103;-77
2023/06/08 05:24:03;;;;;;;12.52;6.45;;;21.60;99.90;;;;;;4956888;28;20192;-77
2023/06/08 05:26:29;;;;;;;11.80;6.75;;;21.60;99.90;;;;;;4956662;28;20114;-76
2023/06/08 05:28:55;;;;;;;12.82;6.63;;;22.00;99.90;;;;;;4956641;28;20452;-77
2023/06/08 05:31:21;;;;;;;10.75;6.72;;;21.90;99.90;;;;;;4955085;28;20113;-79
2023/06/08 05:33:47;;;;;;;13.55;6.95;;;22.20;99.90;;;;;;4939083;28;20061;-79
2023/06/08 05:36:13;;;;;;;13.15;7.75;;;22.50;99.90;;;;;;4956945;28;20031;-79
2023/06/08 05:38:39;;;;;;;9.65;6.53;;;22.50;99.90;;;;;;4956577;28;20114;-79
2023/06/08 05:41:06;;;;;;;12.52;6.50;;;22.80;99.90;;;;;;4954765;28;20515;-78
2023/06/08 05:43:32;;;;;;;11.23;6.43;;;23.00;99.90;;;;;;4956624;28;20510;-79
2023/06/08 05:45:58;;;;;;;13.45;6.70;;;23.00;99.90;;;;;;4956738;28;20035;-78
2023/06/08 05:48:24;;;;;;;14.00;7.47;;;23.20;99.90;;;;;;4956709;28;20197;-77
2023/06/08 05:50:50;;;;;;;12.63;7.45;;;23.30;99.90;;;;;;4956326;28;20027;-78
2023/06/08 05:53:16;;;;;;;10.93;6.55;;;23.30;99.90;;;;;;4954576;28;20038;-76
2023/06/08 05:55:42;;;;;;;13.80;6.78;;;23.30;99.90;;;;;;4955414;28;20029;-79
2023/06/08 05:58:08;;;;;;;11.15;6.57;;;23.10;99.90;;;;;;4956496;28;20046;-77
2023/06/08 06:00:35;;;;;;;13.77;7.75;;;23.30;99.90;;;;;;4956216;28;20023;-77
2023/06/08 06:03:01;;;;;;;15.45;6.43;;;23.10;99.90;;;;;;4954481;28;20526;-77
2023/06/08 06:05:27;;;;;;;10.60;7.03;;;23.30;99.90;;;;;;4956105;28;20099;-78
2023/06/08 06:07:53;;;;;;;9.68;6.40;;;23.40;99.90;;;;;;4956116;28;20039;-76
2023/06/08 06:10:18;;;;;;;13.40;7.15;;;23.80;99.90;;;;;;4956572;28;20034;-77
2023/06/08 06:12:44;;;;;;;8.95;5.82;;;23.00;99.90;;;;;;4955851;28;20045;-78
2023/06/08 06:15:11;;;;;;;8.88;5.90;;;23.50;99.90;;;;;;4953942;28;20046;-77
2023/06/08 06:17:37;;;;;;;11.65;5.93;;;23.40;99.90;;;;;;4938816;28;20043;-77
2023/06/08 06:20:05;;;;;;;10.73;6.47;;;22.90;99.90;;;;;;4937618;29;20032;-77
2023/06/08 06:22:31;;;;;;;11.20;6.25;;;23.20;99.90;;;;;;4955813;28;20051;-77
2023/06/08 06:24:57;;;;;;;9.60;6.13;;;22.40;99.90;;;;;;4948578;28;20467;-77
2023/06/08 06:27:23;;;;;;;9.73;6.25;;;23.10;99.90;;;;;;4950696;28;20373;-77
2023/06/08 06:29:51;;;;;;;11.48;6.25;;;23.60;99.90;;;;;;4939244;28;20471;-77
2023/06/08 06:32:17;;;;;;;9.77;5.93;;;23.70;99.90;;;;;;4953732;28;20039;-80
2023/06/08 06:34:45;;;;;;;9.93;5.13;;;23.70;99.90;;;;;;4954141;28;20054;-78
2023/06/08 06:37:13;;;;;;;8.80;5.82;;;23.90;99.90;;;;;;4955925;28;20038;-79
2023/06/08 06:39:39;;;;;;;10.32;5.60;;;24.20;99.90;;;;;;4955444;28;20185;-79
2023/06/08 06:42:06;;;;;;;8.70;5.20;;;24.10;99.90;;;;;;4938323;29;20067;-79
2023/06/08 06:44:41;;;;;;;13.57;6.40;;;24.30;99.90;;;;;;4936332;28;20019;-79
2023/06/08 06:47:07;;;;;;;11.65;5.25;;;24.60;99.90;;;;;;4938078;29;20043;-78
2023/06/08 06:49:35;;;;;;;9.10;5.65;;;24.90;99.90;;;;;;4955128;28;20415;-79
2023/06/08 06:52:01;;;;;;;10.00;5.97;;;24.80;99.90;;;;;;4955175;28;20039;-78
2023/06/08 06:54:26;;;;;;;10.55;6.07;;;24.70;99.90;;;;;;4920574;28;20027;-78
2023/06/08 06:56:52;;;;;;;9.07;5.75;;;24.90;99.90;;;;;;4938066;29;20482;-78
2023/06/08 06:59:20;;;;;;;9.93;5.95;;;25.10;99.90;;;;;;4952838;28;20415;-78
2023/06/08 07:01:46;;;;;;;12.23;5.32;;;25.20;99.90;;;;;;4953150;28;20118;-78
2023/06/08 07:04:14;;;;;;;17.27;6.00;;;25.40;99.90;;;;;;4953185;28;20110;-77
2023/06/08 07:06:42;;;;;;;8.80;5.47;;;24.80;99.90;;;;;;4953391;28;20522;-78
2023/06/08 07:09:09;;;;;;;11.93;5.65;;;25.20;99.90;;;;;;4953742;28;20387;-78
2023/06/08 07:11:35;;;;;;;10.32;5.72;;;25.20;99.90;;;;;;4954766;28;20069;-77
2023/06/08 07:14:01;;;;;;;12.85;5.47;;;24.90;99.90;;;;;;4952827;28;20034;-77
2023/06/08 07:16:27;;;;;;;10.07;5.20;;;24.90;99.90;;;;;;4948908;28;20050;-79
2023/06/08 07:18:53;;;;;;;7.88;5.03;;;25.10;99.90;;;;;;4954690;28;20031;-78
2023/06/08 07:21:21;;;;;;;10.00;5.65;;;25.00;99.90;;;;;;4954865;28;20379;-79
2023/06/08 07:23:48;;;;;;;11.57;5.68;;;25.20;99.90;;;;;;4954538;28;20110;-76
2023/06/08 07:26:14;;;;;;;12.13;5.20;;;25.20;99.90;;;;;;4952967;28;20035;-78
2023/06/08 07:28:40;;;;;;;7.90;4.93;;;25.40;99.90;;;;;;4954650;28;20098;-76
2023/06/08 07:31:06;;;;;;;9.57;5.03;;;25.90;99.90;;;;;;4937378;28;20130;-78
2023/06/08 07:33:32;;;;;;;10.20;5.78;;;26.30;99.90;;;;;;4937210;29;20053;-79
2023/06/08 07:35:58;;;;;;;9.40;5.93;;;25.80;99.90;;;;;;4952398;28;20122;-78
2023/06/08 07:38:24;;;;;;;7.05;4.78;;;26.10;99.90;;;;;;4958794;28;20475;-78
2023/06/08 07:40:49;;;;;;;8.98;5.30;;;26.00;99.90;;;;;;4952062;28;20027;-78
2023/06/08 07:43:15;;;;;;;7.68;4.63;;;26.10;99.90;;;;;;4945185;28;20036;-78
2023/06/08 07:45:42;;;;;;;10.57;5.30;;;25.20;99.90;;;;;;4951840;28;20027;-79
2023/06/08 07:48:07;;;;;;;8.02;5.18;;;25.40;99.90;;;;;;4939967;29;20060;-79
2023/06/08 07:50:34;;;;;;;8.98;4.90;;;25.80;99.90;;;;;;4919984;28;20093;-78
2023/06/08 07:52:59;;;;;;;10.57;5.78;;;25.70;99.90;;;;;;4954615;28;20035;-78
2023/06/08 07:55:25;;;;;;;7.95;5.18;;;26.10;99.90;;;;;;4954037;28;20038;-78
2023/06/08 07:57:51;;;;;;;9.85;5.45;;;26.30;99.90;;;;;;4948953;28;20471;-78
2023/06/08 08:00:18;;;;;;;8.90;5.70;;;26.00;99.90;;;;;;4925541;28;20043;-78
2023/06/08 08:02:44;;;;;;;6.82;5.22;;;26.10;99.90;;;;;;4935989;29;20034;-80
2023/06/08 08:05:10;;;;;;;9.88;5.97;;;26.20;99.90;;;;;;4937037;28;20114;-79
2023/06/08 08:07:36;;;;;;;9.90;5.10;;;26.40;99.90;;;;;;4934125;29;20063;-78
2023/06/08 08:10:03;;;;;;;8.50;5.28;;;26.10;99.90;;;;;;4940446;29;20035;-79
2023/06/08 08:12:29;;;;;;;9.65;6.30;;;26.30;99.90;;;;;;4934372;29;20399;-80
2023/06/08 08:14:55;;;;;;;11.35;6.38;;;25.10;99.90;;;;;;4953616;28;20050;-80
2023/06/08 08:17:21;;;;;;;8.18;5.13;;;25.70;99.90;;;;;;4953667;28;20042;-81
2023/06/08 08:19:47;;;;;;;10.25;6.07;;;25.90;99.90;;;;;;4936759;29;20031;-79
2023/06/08 08:22:13;;;;;;;7.95;5.47;;;25.90;99.90;;;;;;4953733;28;20037;-79
2023/06/08 08:24:39;;;;;;;11.73;5.53;;;25.60;99.90;;;;;;4953882;28;20019;-80
2023/06/08 08:27:06;;;;;;;8.98;5.90;;;25.70;99.90;;;;;;4936047;29;20452;-81
2023/06/08 08:29:31;;;;;;;12.07;5.93;;;25.70;99.90;;;;;;4953945;28;20055;-81
2023/06/08 08:31:57;;;;;;;9.80;5.55;;;26.10;99.90;;;;;;4936616;28;20074;-81
2023/06/08 08:34:23;;;;;;;9.75;5.63;;;26.20;99.90;;;;;;4953665;28;20102;-80
2023/06/08 08:36:49;;;;;;;8.65;5.68;;;26.30;99.90;;;;;;4954107;28;20110;-80
2023/06/08 08:39:15;;;;;;;11.55;6.00;;;26.50;99.90;;;;;;4953253;28;20039;-80
2023/06/08 08:41:43;;;;;;;10.32;5.78;;;26.50;99.90;;;;;;4953915;28;20031;-79
2023/06/08 08:44:10;;;;;;;11.25;6.15;;;26.90;99.90;;;;;;4953371;28;20033;-80
2023/06/08 08:46:39;;;;;;;10.93;6.88;;;27.20;99.90;;;;;;4953916;28;20094;-80
2023/06/08 08:49:13;;;;;;;11.05;6.78;;;27.10;99.90;;;;;;4947108;28;20034;-80
2023/06/08 08:51:39;;;;;;;10.52;6.68;;;27.10;99.90;;;;;;4958532;28;20031;-80
2023/06/08 08:54:07;;;;;;;7.25;5.40;;;27.40;99.90;;;;;;4936597;29;20027;-81
2023/06/08 08:56:37;;;;;;;13.55;6.75;;;27.40;99.90;;;;;;4953535;28;20122;-80
2023/06/08 08:59:04;;;;;;;11.85;5.75;;;27.30;99.90;;;;;;4936010;28;20054;-79
2023/06/08 09:01:32;;;;;;;10.02;5.68;;;27.30;99.90;;;;;;4953598;28;20431;-80
2023/06/08 09:04:01;;;;;;;15.07;6.40;;;27.30;99.90;;;;;;4953717;28;20039;-80
2023/06/08 09:06:30;;;;;;;10.32;6.05;;;26.50;99.90;;;;;;4953230;28;20336;-77
2023/06/08 09:08:57;;;;;;;18.15;7.40;;;26.60;99.90;;;;;;4953370;28;20023;-77
2023/06/08 09:11:23;;;;;;;9.77;5.78;;;26.80;99.90;;;;;;4953401;28;20053;-79
2023/06/08 09:14:06;;;;;;;13.52;6.88;;;26.90;99.90;;;;;;4953290;28;20032;-79
2023/06/08 09:16:44;;;;;;;10.40;5.95;;;27.10;99.90;;;;;;4953607;28;20524;-79
2023/06/08 09:19:11;;;;;;;12.20;6.07;;;27.00;99.90;;;;;;4953220;28;20085;-78
2023/06/08 09:21:37;;;;;;;15.30;6.20;;;26.70;99.90;;;;;;4953146;28;20026;-81
2023/06/08 09:24:16;;;;;;;10.20;6.15;;;26.20;99.90;;;;;;4953581;28;20035;-82
2023/06/08 09:26:51;;;;;;;10.25;5.65;;;26.10;99.90;;;;;;4953415;28;20027;-77
2023/06/08 09:29:37;;;;;;;10.88;6.80;;;26.40;99.90;;;;;;4953211;28;20077;-77
2023/06/08 09:32:04;;;;;;;13.13;5.90;;;26.50;99.90;;;;;;4957292;28;20078;-81
2023/06/08 09:34:34;;;;;;;13.85;6.50;;;;;;;;;;4956821;28;20515;-80
2023/06/08 09:37:06;;;;;;;12.65;6.68;;;26.90;99.90;;;;;;4956697;28;20379;-80
2023/06/08 09:39:40;;;;;;;12.40;6.35;;;27.20;99.90;;;;;;4956819;28;20106;-81
2023/06/08 09:42:06;;;;;;;14.60;6.60;;;27.10;99.90;;;;;;4958439;28;20055;-81
2023/06/08 09:44:32;;;;;;;12.30;6.07;;;27.30;99.90;;;;;;4967602;28;20062;-80
2023/06/08 09:46:58;;;;;;;11.82;5.78;;;27.20;99.90;;;;;;4956366;28;20039;-79
2023/06/08 09:49:24;;;;;;;10.88;6.22;;;27.40;99.90;;;;;;4939611;29;20391;-81
2023/06/08 09:51:51;;;;;;;11.13;5.65;;;27.30;99.90;;;;;;4956468;28;20554;-80
2023/06/08 09:54:21;;;;;;;8.23;4.93;;;27.20;99.90;;;;;;4956623;28;20383;-80
2023/06/08 09:56:52;;;;;;;10.05;5.57;;;27.00;99.90;;;;;;4956371;28;20043;-80
2023/06/08 09:59:22;;;;;;;11.13;5.40;;;27.00;99.90;;;;;;4956304;28;20035;-81
2023/06/08 10:01:55;;;;;;;8.70;4.50;;;27.10;99.90;;;;;;4956309;28;20042;-81
2023/06/08 10:04:35;;;;;;;9.65;5.80;;;26.80;99.90;;;;;;4956100;28;20562;-80
2023/06/08 10:07:14;;;;;;;7.35;5.18;;;26.90;99.90;;;;;;4944704;28;20054;-79
2023/06/08 10:09:44;;;;;;;11.57;5.63;;;26.80;99.90;;;;;;4956113;28;20122;-80
2023/06/08 10:12:11;;;;;;;11.05;6.40;;;26.80;99.90;;;;;;4955762;28;20035;-80
2023/06/08 10:14:37;;;;;;;12.30;5.72;;;26.90;99.90;;;;;;4955837;28;20036;-80
2023/06/08 10:17:03;;;;;;;9.45;5.68;;;27.10;99.90;;;;;;4955875;28;20051;-79
2023/06/08 10:19:34;;;;;;;9.80;6.63;;;26.60;99.90;;;;;;4956106;28;20476;-80
2023/06/08 10:22:01;;;;;;;14.00;6.40;;;26.80;99.90;;;;;;4955766;28;20023;-81
2023/06/08 10:24:30;;;;;;;9.45;5.88;;;26.70;99.90;;;;;;4955699;28;20024;-81
2023/06/08 10:27:10;;;;;;;11.73;6.13;;;26.80;99.90;;;;;;4938634;29;20035;-80
2023/06/08 10:29:36;;;;;;;12.60;6.03;;;27.10;99.90;;;;;;4955311;28;20106;-77
2023/06/08 10:32:09;;;;;;;10.25;5.65;;;27.40;99.90;;;;;;4955842;28;20035;-80
2023/06/08 10:34:39;;;;;;;10.20;6.47;;;27.40;99.90;;;;;;4955642;28;20033;-79
2023/06/08 10:37:05;;;;;;;12.48;6.57;;;27.40;99.90;;;;;;4955785;28;20039;-77
2023/06/08 10:39:46;;;;;;;8.73;5.68;;;27.50;99.90;;;;;;4955353;28;20101;-78
2023/06/08 10:42:20;;;;;;;12.43;6.00;;;27.60;99.90;;;;;;4955070;28;20494;-81
2023/06/08 10:44:57;;;;;;;10.68;5.70;;;27.50;99.90;;;;;;4938244;29;20038;-79
2023/06/08 10:47:24;;;;;;;10.98;5.93;;;27.80;99.90;;;;;;4955393;28;20058;-78
2023/06/08 10:50:06;;;;;;;9.95;6.05;;;27.80;99.90;;;;;;4955192;28;20030;-81
2023/06/08 10:52:45;;;;;;;14.50;6.78;;;27.60;99.90;;;;;;4955237;28;20439;-78
2023/06/08 10:55:15;;;;;;;8.77;6.45;;;27.50;99.90;;;;;;4955284;28;20043;-78
2023/06/08 10:57:47;;;;;;;13.13;6.47;;;27.40;99.90;;;;;;4954945;28;20023;-80
2023/06/08 11:00:29;;;;;;;15.60;7.05;;;27.10;99.90;;;;;;4955232;28;20035;-79
2023/06/08 11:02:57;;;;;;;10.68;6.88;;;27.10;99.90;;;;;;4954833;28;20039;-79
2023/06/08 11:05:23;;;;;;;12.07;6.82;;;27.10;99.90;;;;;;4955100;28;20364;-78
2023/06/08 11:07:52;;;;;;;10.30;6.60;;;27.10;99.90;;;;;;4954925;28;20030;-79
2023/06/08 11:10:20;;;;;;;10.85;6.82;;;27.20;99.90;;;;;;4954907;28;20106;-79
2023/06/08 11:12:46;;;;;;;12.13;6.65;;;27.60;99.90;;;;;;4942415;28;20506;-80
2023/06/08 11:15:12;;;;;;;8.85;6.20;;;27.70;99.90;;;;;;4954578;28;20052;-79
2023/06/08 11:17:56;;;;;;;10.40;6.60;;;27.80;99.90;;;;;;4937847;29;20484;-79
2023/06/08 11:20:26;;;;;;;13.10;6.90;;;27.90;99.90;;;;;;4954510;28;20031;-80
2023/06/08 11:22:53;;;;;;;9.57;6.57;;;27.80;99.90;;;;;;4954724;28;20042;-78
2023/06/08 11:25:20;;;;;;;10.82;5.88;;;27.90;99.90;;;;;;4954959;28;20019;-78
2023/06/08 11:27:46;;;;;;;11.48;7.13;;;27.80;99.90;;;;;;4954180;28;20035;-80
2023/06/08 11:30:19;;;;;;;9.20;6.97;;;27.80;99.90;;;;;;4954814;28;20027;-79
2023/06/08 11:32:50;;;;;;;11.68;7.53;;;27.70;99.90;;;;;;4954149;28;20518;-81
2023/06/08 11:35:18;;;;;;;12.75;7.85;;;27.50;99.90;;;;;;4954523;28;20045;-80
2023/06/08 11:37:44;;;;;;;9.55;6.40;;;27.30;99.90;;;;;;4954390;28;20098;-80
2023/06/08 11:40:14;;;;;;;12.43;7.75;;;27.20;99.90;;;;;;4954376;28;20027;-79
2023/06/08 11:42:42;;;;;;;11.57;6.90;;;27.30;99.90;;;;;;4941893;28;20094;-80
2023/06/08 11:45:09;;;;;;;9.65;6.55;;;27.30;99.90;;;;;;4954392;28;20050;-80
2023/06/08 11:47:36;;;;;;;11.40;7.30;;;27.70;99.90;;;;;;4942132;28;20096;-80
2023/06/08 11:50:03;;;;;;;13.45;7.40;;;28.10;99.90;;;;;;4954294;28;20031;-79
2023/06/08 11:52:34;;;;;;;10.65;6.38;;;28.60;99.90;;;;;;4954290;28;20042;-80
2023/06/08 11:55:08;;;;;;;12.50;7.30;;;28.40;99.90;;;;;;4954059;28;20035;-81
2023/06/08 11:57:44;;;;;;;9.98;7.15;;;28.10;99.90;;;;;;4954140;29;20121;-80
2023/06/08 12:00:26;;;;;;;10.25;6.78;;;27.60;99.90;;;;;;4953934;28;20038;-80
2023/06/08 12:02:53;;;;;;;13.57;7.38;;;27.90;99.90;;;;;;4936842;29;20078;-80
2023/06/08 12:05:25;;;;;;;10.52;7.07;;;27.80;99.90;;;;;;4954030;28;20071;-79
2023/06/08 12:08:00;;;;;;;;;;;27.70;99.90;;;;;;4954660;28;20034;-80
2023/06/08 12:10:34;;;;;;;8.65;6.53;;;27.30;99.90;;;;;;4953817;28;19911;-79
2023/06/08 12:13:22;;;;;;;9.95;6.80;;;27.70;99.90;;;;;;4953727;28;20049;-80
2023/06/08 12:15:52;;;;;;;13.25;6.43;;;27.50;99.90;;;;;;4953717;28;20059;-82
2023/06/08 12:18:19;;;;;;;10.43;6.22;;;27.70;99.90;;;;;;4953705;28;20102;-81
2023/06/08 12:20:48;;;;;;;10.93;7.50;;;27.40;99.90;;;;;;4953918;28;20062;-81
2023/06/08 12:23:14;;;;;;;14.02;8.55;;;27.50;99.90;;;;;;4953919;28;20038;-81
2023/06/08 12:25:41;;;;;;;16.25;8.00;;;27.50;99.90;;;;;;4954220;28;20024;-81
2023/06/08 12:28:19;;;;;;;11.32;6.90;;;27.70;99.90;;;;;;4953709;28;20027;-79
2023/06/08 12:30:45;;;;;;;10.82;6.63;;;27.60;99.90;;;;;;4953523;28;20110;-80
2023/06/08 12:33:17;;;;;;;10.90;6.45;;;27.80;99.90;;;;;;4953966;28;20031;-83
2023/06/08 12:35:43;;;;;;;10.95;6.60;;;27.30;99.90;;;;;;4953609;28;20029;-81
2023/06/08 12:38:09;;;;;;;12.95;6.70;;;27.20;99.90;;;;;;4954058;28;20024;-82
2023/06/08 12:40:35;;;;;;;10.32;6.70;;;27.40;99.90;;;;;;4953905;28;20427;-81
2023/06/08 12:43:01;;;;;;;12.23;8.05;;;27.40;99.90;;;;;;4953803;28;20075;-83
2023/06/08 12:45:28;;;;;;;13.15;7.25;;;27.70;99.90;;;;;;4953350;28;20069;-80
2023/06/08 12:47:53;;;;;;;10.35;6.70;;;27.60;99.90;;;;;;4953711;28;20015;-76